Buzau, Romania
Current Conditions -  °F | °C
As of 12:30 PM on Saturday 20 Dec 2014 (Local Time) from LROP Reporting Station
Clear Clear  
Wind Chill: 46°   Ceiling: Unl
Heat Index: 46°   Visibility: 6mi
Dew Point: 43°   Wind: 3mph
Humidity: 87%   Direction: 240°WSW
Pressure: 30"   Gusts: NA
Location:  45.15°N, 26.82°E
Report Text: LROP 200930Z 24003KT CAVOK 08/06 Q1016 R08R/19//95R08L/19//95 NOSIG
Loading
Personal Weather Stations






























Interactive Weather Map New forecast layout! Learn more

10-Day Weather Forecast

Advertisements
Track Severe Weather on mobile